sensor_id;sensor_type;location;lat;lon;timestamp;P1;durP1;ratioP1;P2;durP2;ratioP2
19113;SDS011;9689;51.052;13.772;2024-01-30T00:02:00;35.10;;;15.43;;
19113;SDS011;9689;51.052;13.772;2024-01-30T00:07:01;38.53;;;14.80;;
19113;SDS011;9689;51.052;13.772;2024-01-30T00:12:02;36.08;;;14.82;;
19113;SDS011;9689;51.052;13.772;2024-01-30T00:17:05;32.95;;;14.07;;
19113;SDS011;9689;51.052;13.772;2024-01-30T00:22:05;33.55;;;15.48;;
19113;SDS011;9689;51.052;13.772;2024-01-30T00:27:07;37.65;;;15.35;;
19113;SDS011;9689;51.052;13.772;2024-01-30T00:32:09;35.97;;;15.30;;
19113;SDS011;9689;51.052;13.772;2024-01-30T00:37:10;37.55;;;16.10;;
19113;SDS011;9689;51.052;13.772;2024-01-30T00:42:11;30.77;;;14.60;;
19113;SDS011;9689;51.052;13.772;2024-01-30T00:47:13;36.90;;;14.52;;
19113;SDS011;9689;51.052;13.772;2024-01-30T00:52:13;31.33;;;14.38;;
19113;SDS011;9689;51.052;13.772;2024-01-30T00:57:15;32.72;;;15.10;;
19113;SDS011;9689;51.052;13.772;2024-01-30T01:02:17;34.45;;;15.80;;
19113;SDS011;9689;51.052;13.772;2024-01-30T01:07:18;32.35;;;15.15;;
19113;SDS011;9689;51.052;13.772;2024-01-30T01:12:18;32.38;;;14.38;;
19113;SDS011;9689;51.052;13.772;2024-01-30T01:17:20;32.72;;;14.63;;
19113;SDS011;9689;51.052;13.772;2024-01-30T01:22:21;30.42;;;13.07;;
19113;SDS011;9689;51.052;13.772;2024-01-30T01:27:22;30.00;;;13.82;;
19113;SDS011;9689;51.052;13.772;2024-01-30T01:32:24;34.78;;;14.15;;
19113;SDS011;9689;51.052;13.772;2024-01-30T01:37:25;33.20;;;14.68;;
19113;SDS011;9689;51.052;13.772;2024-01-30T01:42:26;27.33;;;13.32;;
19113;SDS011;9689;51.052;13.772;2024-01-30T01:47:28;35.45;;;14.10;;
19113;SDS011;9689;51.052;13.772;2024-01-30T01:52:29;38.08;;;13.95;;
19113;SDS011;9689;51.052;13.772;2024-01-30T01:57:30;28.95;;;13.65;;
19113;SDS011;9689;51.052;13.772;2024-01-30T02:02:34;25.27;;;12.23;;
19113;SDS011;9689;51.052;13.772;2024-01-30T02:07:36;32.28;;;14.05;;
19113;SDS011;9689;51.052;13.772;2024-01-30T02:12:38;35.38;;;15.13;;
19113;SDS011;9689;51.052;13.772;2024-01-30T02:17:40;30.15;;;13.00;;
19113;SDS011;9689;51.052;13.772;2024-01-30T02:22:42;38.63;;;14.65;;
19113;SDS011;9689;51.052;13.772;2024-01-30T02:27:43;35.10;;;14.20;;
19113;SDS011;9689;51.052;13.772;2024-01-30T02:32:44;30.20;;;13.23;;
19113;SDS011;9689;51.052;13.772;2024-01-30T02:37:46;36.97;;;14.55;;
19113;SDS011;9689;51.052;13.772;2024-01-30T02:42:47;30.85;;;13.27;;
19113;SDS011;9689;51.052;13.772;2024-01-30T02:47:47;29.48;;;13.90;;
19113;SDS011;9689;51.052;13.772;2024-01-30T02:52:49;31.17;;;13.85;;
19113;SDS011;9689;51.052;13.772;2024-01-30T02:57:50;38.88;;;14.57;;
19113;SDS011;9689;51.052;13.772;2024-01-30T03:02:51;36.38;;;14.02;;
19113;SDS011;9689;51.052;13.772;2024-01-30T03:07:53;38.58;;;14.60;;
19113;SDS011;9689;51.052;13.772;2024-01-30T03:12:54;34.75;;;15.07;;
19113;SDS011;9689;51.052;13.772;2024-01-30T03:17:55;34.47;;;14.75;;
19113;SDS011;9689;51.052;13.772;2024-01-30T03:22:57;41.55;;;15.48;;
19113;SDS011;9689;51.052;13.772;2024-01-30T03:28:00;36.65;;;15.82;;
19113;SDS011;9689;51.052;13.772;2024-01-30T03:33:01;40.53;;;15.60;;
19113;SDS011;9689;51.052;13.772;2024-01-30T03:38:03;36.15;;;13.40;;
19113;SDS011;9689;51.052;13.772;2024-01-30T03:43:04;37.30;;;14.80;;
19113;SDS011;9689;51.052;13.772;2024-01-30T03:48:06;30.50;;;14.27;;
19113;SDS011;9689;51.052;13.772;2024-01-30T03:53:08;34.90;;;14.70;;
19113;SDS011;9689;51.052;13.772;2024-01-30T03:58:09;36.60;;;14.40;;
19113;SDS011;9689;51.052;13.772;2024-01-30T04:03:10;27.15;;;13.70;;
19113;SDS011;9689;51.052;13.772;2024-01-30T04:08:12;36.58;;;14.10;;
19113;SDS011;9689;51.052;13.772;2024-01-30T04:13:13;32.45;;;13.50;;
19113;SDS011;9689;51.052;13.772;2024-01-30T04:18:14;33.03;;;14.75;;
19113;SDS011;9689;51.052;13.772;2024-01-30T04:23:16;33.38;;;13.38;;
19113;SDS011;9689;51.052;13.772;2024-01-30T04:28:17;30.27;;;13.68;;
19113;SDS011;9689;51.052;13.772;2024-01-30T04:33:18;30.15;;;14.10;;
19113;SDS011;9689;51.052;13.772;2024-01-30T04:38:20;36.55;;;14.93;;
19113;SDS011;9689;51.052;13.772;2024-01-30T04:43:21;35.50;;;14.40;;
19113;SDS011;9689;51.052;13.772;2024-01-30T04:48:21;37.45;;;14.32;;
19113;SDS011;9689;51.052;13.772;2024-01-30T04:53:24;32.28;;;14.93;;
19113;SDS011;9689;51.052;13.772;2024-01-30T04:58:24;38.00;;;15.73;;
19113;SDS011;9689;51.052;13.772;2024-01-30T05:03:25;33.90;;;14.63;;
19113;SDS011;9689;51.052;13.772;2024-01-30T05:08:28;36.78;;;14.52;;
19113;SDS011;9689;51.052;13.772;2024-01-30T05:13:29;32.65;;;14.75;;
19113;SDS011;9689;51.052;13.772;2024-01-30T05:18:30;33.72;;;15.27;;
19113;SDS011;9689;51.052;13.772;2024-01-30T05:23:32;34.75;;;14.35;;
19113;SDS011;9689;51.052;13.772;2024-01-30T05:28:33;42.00;;;15.15;;
19113;SDS011;9689;51.052;13.772;2024-01-30T05:33:33;34.85;;;14.82;;
19113;SDS011;9689;51.052;13.772;2024-01-30T05:38:36;35.58;;;15.25;;
19113;SDS011;9689;51.052;13.772;2024-01-30T05:43:36;31.15;;;14.15;;
19113;SDS011;9689;51.052;13.772;2024-01-30T05:48:37;42.33;;;15.98;;
19113;SDS011;9689;51.052;13.772;2024-01-30T05:53:39;34.78;;;14.45;;
19113;SDS011;9689;51.052;13.772;2024-01-30T05:58:40;38.25;;;15.10;;
19113;SDS011;9689;51.052;13.772;2024-01-30T06:03:43;33.50;;;14.40;;
19113;SDS011;9689;51.052;13.772;2024-01-30T06:08:45;40.38;;;14.68;;
19113;SDS011;9689;51.052;13.772;2024-01-30T06:13:45;34.00;;;14.77;;
19113;SDS011;9689;51.052;13.772;2024-01-30T06:18:46;39.90;;;15.02;;
19113;SDS011;9689;51.052;13.772;2024-01-30T06:23:48;33.03;;;14.40;;
19113;SDS011;9689;51.052;13.772;2024-01-30T06:28:49;39.03;;;14.77;;
19113;SDS011;9689;51.052;13.772;2024-01-30T06:33:50;37.80;;;15.55;;
19113;SDS011;9689;51.052;13.772;2024-01-30T06:38:52;36.38;;;14.73;;
19113;SDS011;9689;51.052;13.772;2024-01-30T06:43:53;36.60;;;14.32;;
19113;SDS011;9689;51.052;13.772;2024-01-30T06:48:53;32.05;;;13.88;;
19113;SDS011;9689;51.052;13.772;2024-01-30T06:53:55;34.38;;;15.35;;
19113;SDS011;9689;51.052;13.772;2024-01-30T06:58:56;38.00;;;16.17;;
19113;SDS011;9689;51.052;13.772;2024-01-30T07:03:57;32.75;;;15.13;;
19113;SDS011;9689;51.052;13.772;2024-01-30T07:09:00;37.80;;;14.98;;
19113;SDS011;9689;51.052;13.772;2024-01-30T07:14:00;35.40;;;15.30;;
19113;SDS011;9689;51.052;13.772;2024-01-30T07:19:03;31.35;;;13.63;;
19113;SDS011;9689;51.052;13.772;2024-01-30T07:24:05;29.90;;;14.40;;
19113;SDS011;9689;51.052;13.772;2024-01-30T07:29:06;30.40;;;13.23;;
19113;SDS011;9689;51.052;13.772;2024-01-30T07:34:07;35.30;;;15.25;;
19113;SDS011;9689;51.052;13.772;2024-01-30T07:39:09;36.30;;;14.85;;
19113;SDS011;9689;51.052;13.772;2024-01-30T07:44:10;39.88;;;14.63;;
19113;SDS011;9689;51.052;13.772;2024-01-30T07:49:11;30.00;;;13.85;;
19113;SDS011;9689;51.052;13.772;2024-01-30T07:54:15;30.58;;;12.73;;
19113;SDS011;9689;51.052;13.772;2024-01-30T07:59:15;32.25;;;14.63;;
19113;SDS011;9689;51.052;13.772;2024-01-30T08:04:16;32.42;;;13.57;;
19113;SDS011;9689;51.052;13.772;2024-01-30T08:09:19;28.52;;;13.23;;
19113;SDS011;9689;51.052;13.772;2024-01-30T08:14:19;33.45;;;15.07;;
19113;SDS011;9689;51.052;13.772;2024-01-30T08:19:20;34.33;;;14.52;;
19113;SDS011;9689;51.052;13.772;2024-01-30T08:24:22;36.50;;;13.65;;
19113;SDS011;9689;51.052;13.772;2024-01-30T08:29:23;27.55;;;12.82;;
19113;SDS011;9689;51.052;13.772;2024-01-30T08:34:24;29.00;;;12.65;;
19113;SDS011;9689;51.052;13.772;2024-01-30T08:39:26;30.23;;;13.35;;
19113;SDS011;9689;51.052;13.772;2024-01-30T08:44:27;30.95;;;12.32;;
19113;SDS011;9689;51.052;13.772;2024-01-30T08:49:28;27.92;;;12.35;;
19113;SDS011;9689;51.052;13.772;2024-01-30T08:54:30;29.30;;;12.63;;
19113;SDS011;9689;51.052;13.772;2024-01-30T08:59:33;29.38;;;12.82;;
19113;SDS011;9689;51.052;13.772;2024-01-30T09:04:34;32.50;;;13.25;;
19113;SDS011;9689;51.052;13.772;2024-01-30T09:09:37;26.05;;;12.68;;
19113;SDS011;9689;51.052;13.772;2024-01-30T09:14:38;24.65;;;12.07;;
19113;SDS011;9689;51.052;13.772;2024-01-30T09:19:40;26.30;;;11.70;;
19113;SDS011;9689;51.052;13.772;2024-01-30T09:24:42;29.67;;;14.20;;
19113;SDS011;9689;51.052;13.772;2024-01-30T09:29:43;28.38;;;12.85;;
19113;SDS011;9689;51.052;13.772;2024-01-30T09:34:44;31.60;;;14.40;;
19113;SDS011;9689;51.052;13.772;2024-01-30T09:39:46;32.42;;;13.68;;
19113;SDS011;9689;51.052;13.772;2024-01-30T09:44:47;27.35;;;12.90;;
19113;SDS011;9689;51.052;13.772;2024-01-30T09:49:51;30.55;;;12.80;;
19113;SDS011;9689;51.052;13.772;2024-01-30T09:54:54;28.27;;;12.60;;
19113;SDS011;9689;51.052;13.772;2024-01-30T09:59:55;32.28;;;13.60;;
19113;SDS011;9689;51.052;13.772;2024-01-30T10:04:56;23.65;;;12.07;;
19113;SDS011;9689;51.052;13.772;2024-01-30T10:09:59;32.03;;;13.10;;
19113;SDS011;9689;51.052;13.772;2024-01-30T10:15:00;25.55;;;11.80;;
19113;SDS011;9689;51.052;13.772;2024-01-30T10:20:03;26.13;;;13.13;;
19113;SDS011;9689;51.052;13.772;2024-01-30T10:25:07;28.65;;;12.80;;
19113;SDS011;9689;51.052;13.772;2024-01-30T10:30:08;29.20;;;12.45;;
19113;SDS011;9689;51.052;13.772;2024-01-30T10:35:09;29.98;;;12.80;;
19113;SDS011;9689;51.052;13.772;2024-01-30T10:40:13;24.75;;;12.85;;
19113;SDS011;9689;51.052;13.772;2024-01-30T10:45:15;23.02;;;11.25;;
19113;SDS011;9689;51.052;13.772;2024-01-30T10:50:16;31.10;;;12.35;;
19113;SDS011;9689;51.052;13.772;2024-01-30T10:55:19;30.85;;;11.18;;
19113;SDS011;9689;51.052;13.772;2024-01-30T11:00:23;28.70;;;11.40;;
19113;SDS011;9689;51.052;13.772;2024-01-30T11:05:25;23.10;;;11.23;;
19113;SDS011;9689;51.052;13.772;2024-01-30T11:10:33;22.02;;;10.68;;
19113;SDS011;9689;51.052;13.772;2024-01-30T11:15:47;22.98;;;11.77;;
19113;SDS011;9689;51.052;13.772;2024-01-30T11:20:48;28.80;;;12.50;;
19113;SDS011;9689;51.052;13.772;2024-01-30T11:25:50;23.98;;;11.98;;
19113;SDS011;9689;51.052;13.772;2024-01-30T11:31:02;28.33;;;12.68;;
19113;SDS011;9689;51.052;13.772;2024-01-30T11:36:03;27.60;;;11.95;;
19113;SDS011;9689;51.052;13.772;2024-01-30T11:41:07;24.85;;;12.10;;
19113;SDS011;9689;51.052;13.772;2024-01-30T11:46:09;25.45;;;12.15;;
19113;SDS011;9689;51.052;13.772;2024-01-30T11:51:11;32.08;;;14.15;;
19113;SDS011;9689;51.052;13.772;2024-01-30T11:56:14;26.55;;;12.32;;
19113;SDS011;9689;51.052;13.772;2024-01-30T12:01:16;30.95;;;13.05;;
19113;SDS011;9689;51.052;13.772;2024-01-30T12:06:17;26.15;;;12.75;;
19113;SDS011;9689;51.052;13.772;2024-01-30T12:11:20;35.05;;;13.43;;
19113;SDS011;9689;51.052;13.772;2024-01-30T12:16:21;31.98;;;14.02;;
19113;SDS011;9689;51.052;13.772;2024-01-30T12:21:23;27.52;;;13.50;;
19113;SDS011;9689;51.052;13.772;2024-01-30T12:26:25;33.65;;;13.23;;
19113;SDS011;9689;51.052;13.772;2024-01-30T12:31:26;31.55;;;13.10;;
19113;SDS011;9689;51.052;13.772;2024-01-30T12:36:28;30.27;;;14.27;;
19113;SDS011;9689;51.052;13.772;2024-01-30T12:41:31;31.20;;;13.63;;
19113;SDS011;9689;51.052;13.772;2024-01-30T12:46:33;29.42;;;13.73;;
19113;SDS011;9689;51.052;13.772;2024-01-30T12:51:34;30.08;;;13.65;;
19113;SDS011;9689;51.052;13.772;2024-01-30T12:56:37;30.50;;;14.25;;
19113;SDS011;9689;51.052;13.772;2024-01-30T13:01:37;33.17;;;13.55;;
19113;SDS011;9689;51.052;13.772;2024-01-30T13:06:38;34.40;;;14.93;;
19113;SDS011;9689;51.052;13.772;2024-01-30T13:11:40;32.33;;;14.27;;
19113;SDS011;9689;51.052;13.772;2024-01-30T13:16:41;31.70;;;14.27;;
19113;SDS011;9689;51.052;13.772;2024-01-30T13:21:44;26.70;;;13.30;;
19113;SDS011;9689;51.052;13.772;2024-01-30T13:26:47;31.60;;;14.43;;
19113;SDS011;9689;51.052;13.772;2024-01-30T13:31:48;37.45;;;15.43;;
19113;SDS011;9689;51.052;13.772;2024-01-30T13:36:49;34.92;;;15.30;;
19113;SDS011;9689;51.052;13.772;2024-01-30T13:41:52;46.50;;;15.75;;
19113;SDS011;9689;51.052;13.772;2024-01-30T13:46:52;32.55;;;15.55;;
19113;SDS011;9689;51.052;13.772;2024-01-30T13:51:54;31.98;;;14.40;;
19113;SDS011;9689;51.052;13.772;2024-01-30T13:56:57;32.40;;;15.30;;
19113;SDS011;9689;51.052;13.772;2024-01-30T14:01:59;32.28;;;14.50;;
19113;SDS011;9689;51.052;13.772;2024-01-30T14:07:00;27.27;;;14.73;;
19113;SDS011;9689;51.052;13.772;2024-01-30T14:12:05;33.20;;;15.25;;
19113;SDS011;9689;51.052;13.772;2024-01-30T14:17:06;37.42;;;15.85;;
19113;SDS011;9689;51.052;13.772;2024-01-30T14:22:07;33.38;;;15.18;;
19113;SDS011;9689;51.052;13.772;2024-01-30T14:27:09;32.85;;;15.68;;
19113;SDS011;9689;51.052;13.772;2024-01-30T14:32:10;35.22;;;16.33;;
19113;SDS011;9689;51.052;13.772;2024-01-30T14:37:11;37.10;;;15.85;;
19113;SDS011;9689;51.052;13.772;2024-01-30T14:42:13;36.55;;;15.93;;
19113;SDS011;9689;51.052;13.772;2024-01-30T14:47:14;35.97;;;15.88;;
19113;SDS011;9689;51.052;13.772;2024-01-30T14:52:15;34.38;;;15.98;;
19113;SDS011;9689;51.052;13.772;2024-01-30T14:57:17;34.40;;;15.43;;
19113;SDS011;9689;51.052;13.772;2024-01-30T15:02:18;34.60;;;15.60;;
19113;SDS011;9689;51.052;13.772;2024-01-30T15:07:19;38.35;;;16.63;;
19113;SDS011;9689;51.052;13.772;2024-01-30T15:12:33;37.72;;;16.50;;
19113;SDS011;9689;51.052;13.772;2024-01-30T15:17:34;39.80;;;17.80;;
19113;SDS011;9689;51.052;13.772;2024-01-30T15:22:34;35.83;;;16.20;;
19113;SDS011;9689;51.052;13.772;2024-01-30T15:27:36;43.30;;;17.58;;
19113;SDS011;9689;51.052;13.772;2024-01-30T15:32:39;38.63;;;16.52;;
19113;SDS011;9689;51.052;13.772;2024-01-30T15:37:40;43.60;;;18.15;;
19113;SDS011;9689;51.052;13.772;2024-01-30T15:42:42;38.50;;;17.52;;
19113;SDS011;9689;51.052;13.772;2024-01-30T15:47:43;35.95;;;16.98;;
19113;SDS011;9689;51.052;13.772;2024-01-30T15:52:44;44.25;;;18.23;;
19113;SDS011;9689;51.052;13.772;2024-01-30T15:57:46;43.47;;;17.65;;
19113;SDS011;9689;51.052;13.772;2024-01-30T16:02:47;38.35;;;17.23;;
19113;SDS011;9689;51.052;13.772;2024-01-30T16:07:49;38.38;;;17.92;;
19113;SDS011;9689;51.052;13.772;2024-01-30T16:12:51;45.70;;;17.40;;
19113;SDS011;9689;51.052;13.772;2024-01-30T16:17:52;43.47;;;17.80;;
19113;SDS011;9689;51.052;13.772;2024-01-30T16:22:53;43.20;;;18.45;;
19113;SDS011;9689;51.052;13.772;2024-01-30T16:27:56;42.97;;;17.73;;
19113;SDS011;9689;51.052;13.772;2024-01-30T16:32:57;43.22;;;17.75;;
19113;SDS011;9689;51.052;13.772;2024-01-30T16:38:00;39.83;;;17.52;;
19113;SDS011;9689;51.052;13.772;2024-01-30T16:43:03;39.40;;;18.10;;
19113;SDS011;9689;51.052;13.772;2024-01-30T16:48:04;48.45;;;19.42;;
19113;SDS011;9689;51.052;13.772;2024-01-30T16:53:06;42.35;;;18.30;;
19113;SDS011;9689;51.052;13.772;2024-01-30T16:58:08;43.47;;;17.77;;
19113;SDS011;9689;51.052;13.772;2024-01-30T17:03:11;44.70;;;18.50;;
19113;SDS011;9689;51.052;13.772;2024-01-30T17:08:11;46.10;;;18.63;;
19113;SDS011;9689;51.052;13.772;2024-01-30T17:13:14;44.97;;;19.23;;
19113;SDS011;9689;51.052;13.772;2024-01-30T17:18:14;46.97;;;18.83;;
19113;SDS011;9689;51.052;13.772;2024-01-30T17:23:15;43.92;;;17.83;;
19113;SDS011;9689;51.052;13.772;2024-01-30T17:28:17;47.72;;;18.67;;
19113;SDS011;9689;51.052;13.772;2024-01-30T17:33:18;44.67;;;19.67;;
19113;SDS011;9689;51.052;13.772;2024-01-30T17:38:19;46.08;;;18.80;;
19113;SDS011;9689;51.052;13.772;2024-01-30T17:43:21;50.45;;;20.33;;
19113;SDS011;9689;51.052;13.772;2024-01-30T17:48:22;44.25;;;18.13;;
19113;SDS011;9689;51.052;13.772;2024-01-30T17:53:23;45.58;;;18.20;;
19113;SDS011;9689;51.052;13.772;2024-01-30T17:58:25;48.97;;;20.48;;
19113;SDS011;9689;51.052;13.772;2024-01-30T18:03:26;45.30;;;18.17;;
19113;SDS011;9689;51.052;13.772;2024-01-30T18:08:26;48.20;;;19.33;;
19113;SDS011;9689;51.052;13.772;2024-01-30T18:13:29;50.00;;;19.73;;
19113;SDS011;9689;51.052;13.772;2024-01-30T18:18:30;52.17;;;20.40;;
19113;SDS011;9689;51.052;13.772;2024-01-30T18:23:31;55.35;;;20.73;;
19113;SDS011;9689;51.052;13.772;2024-01-30T18:28:33;49.08;;;19.92;;
19113;SDS011;9689;51.052;13.772;2024-01-30T18:33:34;46.90;;;19.65;;
19113;SDS011;9689;51.052;13.772;2024-01-30T18:38:39;50.97;;;21.30;;
19113;SDS011;9689;51.052;13.772;2024-01-30T18:43:42;51.28;;;20.85;;
19113;SDS011;9689;51.052;13.772;2024-01-30T18:48:43;53.70;;;21.33;;
19113;SDS011;9689;51.052;13.772;2024-01-30T18:53:46;55.83;;;21.75;;
19113;SDS011;9689;51.052;13.772;2024-01-30T18:58:49;51.85;;;20.20;;
19113;SDS011;9689;51.052;13.772;2024-01-30T19:08:42;57.70;;;23.35;;
19113;SDS011;9689;51.052;13.772;2024-01-30T19:13:44;57.20;;;21.73;;
19113;SDS011;9689;51.052;13.772;2024-01-30T19:18:46;49.75;;;20.17;;
19113;SDS011;9689;51.052;13.772;2024-01-30T19:23:49;54.13;;;20.42;;
19113;SDS011;9689;51.052;13.772;2024-01-30T19:28:52;49.65;;;20.83;;
19113;SDS011;9689;51.052;13.772;2024-01-30T19:33:53;48.97;;;21.65;;
19113;SDS011;9689;51.052;13.772;2024-01-30T19:38:56;55.03;;;22.33;;
19113;SDS011;9689;51.052;13.772;2024-01-30T19:43:58;54.15;;;20.85;;
19113;SDS011;9689;51.052;13.772;2024-01-30T19:48:58;51.22;;;21.17;;
19113;SDS011;9689;51.052;13.772;2024-01-30T19:54:01;53.15;;;21.83;;
19113;SDS011;9689;51.052;13.772;2024-01-30T19:59:02;47.72;;;20.63;;
19113;SDS011;9689;51.052;13.772;2024-01-30T20:04:03;55.33;;;21.17;;
19113;SDS011;9689;51.052;13.772;2024-01-30T20:09:07;54.97;;;21.48;;
19113;SDS011;9689;51.052;13.772;2024-01-30T20:14:10;51.13;;;21.45;;
19113;SDS011;9689;51.052;13.772;2024-01-30T20:19:11;52.92;;;21.08;;
19113;SDS011;9689;51.052;13.772;2024-01-30T20:24:14;51.47;;;20.67;;
19113;SDS011;9689;51.052;13.772;2024-01-30T20:29:15;58.03;;;22.88;;
19113;SDS011;9689;51.052;13.772;2024-01-30T20:34:17;54.38;;;22.13;;
19113;SDS011;9689;51.052;13.772;2024-01-30T20:39:21;63.47;;;22.85;;
19113;SDS011;9689;51.052;13.772;2024-01-30T20:44:22;52.75;;;21.38;;
19113;SDS011;9689;51.052;13.772;2024-01-30T20:49:22;52.58;;;21.25;;
19113;SDS011;9689;51.052;13.772;2024-01-30T20:54:25;57.47;;;23.77;;
19113;SDS011;9689;51.052;13.772;2024-01-30T20:59:26;58.75;;;22.17;;
19113;SDS011;9689;51.052;13.772;2024-01-30T21:04:26;55.88;;;21.63;;
19113;SDS011;9689;51.052;13.772;2024-01-30T21:09:29;57.05;;;21.48;;
19113;SDS011;9689;51.052;13.772;2024-01-30T21:14:29;61.95;;;23.48;;
19113;SDS011;9689;51.052;13.772;2024-01-30T21:19:30;64.15;;;22.88;;
19113;SDS011;9689;51.052;13.772;2024-01-30T21:24:33;58.92;;;22.40;;
19113;SDS011;9689;51.052;13.772;2024-01-30T21:29:33;66.25;;;23.67;;
19113;SDS011;9689;51.052;13.772;2024-01-30T21:34:38;61.65;;;22.10;;
19113;SDS011;9689;51.052;13.772;2024-01-30T21:39:40;56.92;;;22.52;;
19113;SDS011;9689;51.052;13.772;2024-01-30T21:44:41;51.85;;;21.25;;
19113;SDS011;9689;51.052;13.772;2024-01-30T21:49:41;55.85;;;22.05;;
19113;SDS011;9689;51.052;13.772;2024-01-30T21:54:44;61.20;;;23.00;;
19113;SDS011;9689;51.052;13.772;2024-01-30T21:59:46;60.03;;;22.02;;
19113;SDS011;9689;51.052;13.772;2024-01-30T22:04:46;51.13;;;21.95;;
19113;SDS011;9689;51.052;13.772;2024-01-30T22:09:52;65.28;;;23.85;;
19113;SDS011;9689;51.052;13.772;2024-01-30T22:14:53;62.50;;;22.50;;
19113;SDS011;9689;51.052;13.772;2024-01-30T22:24:56;55.45;;;22.50;;
19113;SDS011;9689;51.052;13.772;2024-01-30T22:29:57;58.95;;;22.42;;
19113;SDS011;9689;51.052;13.772;2024-01-30T22:34:58;59.55;;;23.95;;
19113;SDS011;9689;51.052;13.772;2024-01-30T22:40:00;66.72;;;25.77;;
19113;SDS011;9689;51.052;13.772;2024-01-30T22:45:01;64.43;;;22.92;;
19113;SDS011;9689;51.052;13.772;2024-01-30T22:50:02;62.63;;;23.35;;
19113;SDS011;9689;51.052;13.772;2024-01-30T22:55:05;67.10;;;23.55;;
19113;SDS011;9689;51.052;13.772;2024-01-30T23:00:07;67.10;;;24.17;;
19113;SDS011;9689;51.052;13.772;2024-01-30T23:05:13;67.28;;;22.95;;
19113;SDS011;9689;51.052;13.772;2024-01-30T23:10:15;66.53;;;24.48;;
19113;SDS011;9689;51.052;13.772;2024-01-30T23:15:16;66.53;;;24.15;;
19113;SDS011;9689;51.052;13.772;2024-01-30T23:20:17;70.28;;;23.90;;
19113;SDS011;9689;51.052;13.772;2024-01-30T23:25:19;67.07;;;25.20;;
19113;SDS011;9689;51.052;13.772;2024-01-30T23:30:20;63.25;;;23.17;;
19113;SDS011;9689;51.052;13.772;2024-01-30T23:35:21;71.80;;;24.33;;
19113;SDS011;9689;51.052;13.772;2024-01-30T23:40:24;62.40;;;23.98;;
19113;SDS011;9689;51.052;13.772;2024-01-30T23:45:25;59.38;;;24.17;;
19113;SDS011;9689;51.052;13.772;2024-01-30T23:50:26;62.33;;;24.85;;
19113;SDS011;9689;51.052;13.772;2024-01-30T23:55:28;62.42;;;23.83;;
